Time;durP1;ratioP1;P1;durP2;ratioP2;P2;SDS_P1;SDS_P2;PMS_P1;PMS_P2;Temp;Humidity;BMP_temperature;BMP_pressure;BME280_temperature;BME280_humidity;BME280_pressure;Samples;Min_cycle;Max_cycle;Signal;HPM_P1;HPM_P2
2023/02/22 00:00:51;;;;;;;3.47;2.60;;;;;;;;;;5055058;28;20045;-83
2023/02/22 00:03:23;;;;;;;2.80;2.55;;;;;;;;;;5054829;28;20064;-82
2023/02/22 00:05:53;;;;;;;3.20;2.70;;;;;;;;;;5055160;28;20091;-83
2023/02/22 00:08:21;;;;;;;2.92;2.72;;;;;;;;;;5053733;28;20055;-82
2023/02/22 00:10:52;;;;;;;3.40;2.72;;;;;;;;;;5053389;28;20055;-83
2023/02/22 00:13:21;;;;;;;2.90;2.67;;;;;;;;;;5053326;28;20088;-82
2023/02/22 00:15:48;;;;;;;3.53;3.20;;;;;;;;;;5053252;28;20152;-83
2023/02/22 00:18:17;;;;;;;2.88;2.67;;;;;;;;;;5054045;28;20493;-82
2023/02/22 00:20:44;;;;;;;2.60;2.38;;;;;;;;;;5054058;28;20059;-82
2023/02/22 00:23:17;;;;;;;2.50;2.33;;;;;;;;;;5053060;28;20060;-83
2023/02/22 00:25:45;;;;;;;3.80;2.43;;;;;;;;;;5053232;28;20045;-83
2023/02/22 00:28:14;;;;;;;2.97;2.58;;;;;;;;;;5054211;28;20048;-83
2023/02/22 00:30:42;;;;;;;2.97;2.78;;;;;;;;;;5053918;28;20090;-83
2023/02/22 00:33:10;;;;;;;3.55;3.00;;;;;;;;;;5054169;28;20053;-83
2023/02/22 00:35:38;;;;;;;5.93;2.90;;;;;;;;;;5054309;28;20489;-83
2023/02/22 00:38:06;;;;;;;4.43;3.25;;;;;;;;;;5054342;28;20512;-83
2023/02/22 00:40:34;;;;;;;3.03;2.83;;;;;;;;;;5053192;28;20045;-83
2023/02/22 00:43:03;;;;;;;3.10;2.80;;;;;;;;;;5052377;28;20521;-83
2023/02/22 00:45:31;;;;;;;5.05;3.22;;;;;;;;;;5052620;28;20045;-83
2023/02/22 00:47:59;;;;;;;3.13;2.72;;;;;;;;;;5053325;28;20045;-83
2023/02/22 00:50:28;;;;;;;4.63;3.13;;;;;;;;;;5053895;28;20052;-83
2023/02/22 00:52:55;;;;;;;4.72;3.15;;;;;;;;;;5053012;28;20053;-83
2023/02/22 00:55:24;;;;;;;3.17;2.85;;;;;;;;;;5052916;28;20049;-83
2023/02/22 00:57:51;;;;;;;3.55;3.22;;;;;;;;;;5052833;28;20056;-83
2023/02/22 01:00:26;;;;;;;3.72;3.00;;;;;;;;;;5054149;28;20125;-83
2023/02/22 01:02:54;;;;;;;3.75;2.90;;;;;;;;;;5053930;28;20140;-82
2023/02/22 01:05:24;;;;;;;5.82;3.50;;;;;;;;;;5052548;28;20049;-83
2023/02/22 01:07:51;;;;;;;4.88;3.00;;;;;;;;;;5053075;28;20049;-83
2023/02/22 01:10:20;;;;;;;6.82;3.60;;;;;;;;;;5053120;28;20049;-83
2023/02/22 01:12:48;;;;;;;5.82;3.13;;;;;;;;;;5052922;28;20132;-83
2023/02/22 01:15:17;;;;;;;6.50;3.40;;;;;;;;;;5053111;28;20056;-83
2023/02/22 01:17:47;;;;;;;4.95;3.22;;;;;;;;;;5053675;28;20059;-83
2023/02/22 01:20:14;;;;;;;3.90;3.60;;;;;;;;;;5053989;28;20485;-83
2023/02/22 01:22:42;;;;;;;6.43;3.75;;;;;;;;;;5052991;28;20053;-83
2023/02/22 01:25:10;;;;;;;3.13;2.92;;;;;;;;;;5052395;28;20049;-83
2023/02/22 01:27:38;;;;;;;6.35;3.17;;;;;;;;;;5053419;28;20049;-83
2023/02/22 01:30:07;;;;;;;6.07;3.00;;;;;;;;;;5052986;28;20045;-83
2023/02/22 01:32:38;;;;;;;3.58;3.00;;;;;;;;;;5052389;28;20049;-83
2023/02/22 01:35:07;;;;;;;3.45;3.15;;;;;;;;;;5053893;28;20045;-83
2023/02/22 01:37:35;;;;;;;6.43;3.33;;;;;;;;;;5052955;28;20132;-83
2023/02/22 01:40:06;;;;;;;4.82;3.17;;;;;;;;;;5055551;28;20059;-83
2023/02/22 01:42:33;;;;;;;3.10;2.70;;;;;;;;;;5071640;28;20041;-82
2023/02/22 01:45:19;;;;;;;4.65;3.05;;;;;;;;;;5073352;28;20140;-83
2023/02/22 01:47:48;;;;;;;3.33;2.92;;;;;;;;;;5053665;28;20049;-83
2023/02/22 01:50:16;;;;;;;6.35;2.88;;;;;;;;;;5053649;28;20061;-83
2023/02/22 01:52:43;;;;;;;5.88;3.25;;;;;;;;;;5053601;28;20124;-82
2023/02/22 01:55:10;;;;;;;4.97;2.90;;;;;;;;;;5053077;28;20052;-82
2023/02/22 01:57:38;;;;;;;6.20;2.72;;;;;;;;;;5055039;28;20049;-83
2023/02/22 02:00:11;;;;;;;3.95;3.05;;;;;;;;;;5056001;28;20053;-83
2023/02/22 02:02:40;;;;;;;7.97;3.20;;;;;;;;;;5020594;28;20076;-83
2023/02/22 02:05:08;;;;;;;7.80;3.47;;;;;;;;;;5053008;28;20140;-83
2023/02/22 02:07:37;;;;;;;5.18;3.28;;;;;;;;;;5038826;28;20064;-83
2023/02/22 02:10:05;;;;;;;3.50;3.20;;;;;;;;;;5039585;28;20056;-83
2023/02/22 02:12:34;;;;;;;9.02;4.47;;;;;;;;;;5039188;28;20390;-83
2023/02/22 02:15:20;;;;;;;3.35;3.05;;;;;;;;;;5056601;28;20243;-83
2023/02/22 02:17:48;;;;;;;5.25;3.35;;;;;;;;;;5056843;28;20063;-83
2023/02/22 02:20:19;;;;;;;3.97;3.25;;;;;;;;;;5056723;28;20123;-83
2023/02/22 02:22:52;;;;;;;4.88;3.60;;;;;;;;;;5039102;28;20045;-83
2023/02/22 02:25:26;;;;;;;4.03;3.63;;;;;;;;;;5056258;28;20064;-83
2023/02/22 02:27:53;;;;;;;4.03;3.30;;;;;;;;;;5056868;28;20048;-83
2023/02/22 02:30:46;;;;;;;4.07;3.67;;;;;;;;;;5039202;28;20085;-81
2023/02/22 02:33:19;;;;;;;8.45;3.95;;;;;;;;;;5056855;28;20056;-83
2023/02/22 02:35:49;;;;;;;7.35;3.63;;;;;;;;;;5038715;28;20064;-83
2023/02/22 02:38:22;;;;;;;5.45;3.67;;;;;;;;;;5039091;28;20049;-83
2023/02/22 02:41:09;;;;;;;5.65;4.28;;;;;;;;;;5056548;28;20051;-83
2023/02/22 02:43:36;;;;;;;4.35;3.67;;;;;;;;;;5056632;28;20045;-83
2023/02/22 02:46:07;;;;;;;3.45;3.10;;;;;;;;;;5055656;28;20045;-82
2023/02/22 02:48:35;;;;;;;9.57;4.32;;;;;;;;;;5038353;28;20079;-83
2023/02/22 02:51:04;;;;;;;6.43;3.72;;;;;;;;;;5055875;28;20477;-83
2023/02/22 02:53:34;;;;;;;6.72;3.78;;;;;;;;;;5056221;28;20052;-83
2023/02/22 02:56:04;;;;;;;5.32;3.85;;;;;;;;;;5038958;28;20048;-83
2023/02/22 02:58:31;;;;;;;6.15;3.90;;;;;;;;;;5038319;28;20056;-83
2023/02/22 03:01:03;;;;;;;6.15;3.83;;;;;;;;;;5038525;28;20056;-83
2023/02/22 03:03:48;;;;;;;4.43;3.85;;;;;;;;;;5055883;28;20122;-83
2023/02/22 03:06:28;;;;;;;5.13;4.13;;;;;;;;;;5038266;28;20045;-82
2023/02/22 03:09:15;;;;;;;4.85;4.32;;;;;;;;;;5055775;28;20061;-83
2023/02/22 03:11:51;;;;;;;5.22;4.32;;;;;;;;;;5055876;28;20486;-83
2023/02/22 03:14:25;;;;;;;6.15;4.30;;;;;;;;;;5037887;28;20053;-83
2023/02/22 03:16:55;;;;;;;6.28;4.70;;;;;;;;;;5055609;28;20098;-83
2023/02/22 03:19:40;;;;;;;5.15;4.13;;;;;;;;;;5038131;28;20052;-83
2023/02/22 03:22:07;;;;;;;7.85;5.40;;;;;;;;;;5038053;28;20053;-83
2023/02/22 03:24:51;;;;;;;8.25;6.80;;;;;;;;;;5055692;28;20060;-83
2023/02/22 03:27:26;;;;;;;9.98;6.28;;;;;;;;;;5038665;28;20095;-82
2023/02/22 03:29:55;;;;;;;9.23;5.47;;;;;;;;;;5056024;28;20048;-83
2023/02/22 03:32:25;;;;;;;5.80;5.00;;;;;;;;;;5059850;28;20104;-83
2023/02/22 03:34:58;;;;;;;5.75;4.75;;;;;;;;;;5057309;28;20079;-83
2023/02/22 03:37:27;;;;;;;6.78;5.03;;;;;;;;;;5056203;28;20072;-83
2023/02/22 03:39:55;;;;;;;7.53;4.90;;;;;;;;;;5038109;28;20448;-83
2023/02/22 03:42:26;;;;;;;7.07;5.22;;;;;;;;;;5037325;28;20059;-83
2023/02/22 03:44:56;;;;;;;8.75;4.95;;;;;;;;;;5038276;28;20515;-82
2023/02/22 03:47:30;;;;;;;8.02;5.03;;;;;;;;;;5055719;28;20076;-82
2023/02/22 03:50:05;;;;;;;10.43;5.65;;;;;;;;;;5037597;28;20055;-83
2023/02/22 03:52:34;;;;;;;6.07;4.45;;;;;;;;;;5054708;28;20072;-82
2023/02/22 03:55:02;;;;;;;6.55;4.80;;;;;;;;;;5037057;28;20498;-82
2023/02/22 03:57:34;;;;;;;9.73;5.05;;;;;;;;;;5054867;28;20040;-82
2023/02/22 04:00:07;;;;;;;7.15;5.78;;;;;;;;;;5037017;28;20140;-82
2023/02/22 04:02:34;;;;;;;6.25;5.10;;;;;;;;;;5054624;28;20053;-82
2023/02/22 04:05:02;;;;;;;8.95;5.50;;;;;;;;;;5054429;28;20049;-82
2023/02/22 04:07:29;;;;;;;5.47;4.32;;;;;;;;;;5054619;28;20406;-82
2023/02/22 04:09:56;;;;;;;5.68;5.10;;;;;;;;;;5037002;28;20064;-82
2023/02/22 04:12:24;;;;;;;9.23;5.40;;;;;;;;;;5037031;28;20044;-83
2023/02/22 04:14:51;;;;;;;11.32;5.35;;;;;;;;;;5036401;28;20413;-82
2023/02/22 04:17:18;;;;;;;5.88;5.07;;;;;;;;;;5054651;28;20041;-82
2023/02/22 04:19:45;;;;;;;7.43;4.63;;;;;;;;;;5036043;28;20061;-82
2023/02/22 04:22:12;;;;;;;7.28;5.20;;;;;;;;;;5055208;28;20136;-82
2023/02/22 04:24:40;;;;;;;7.60;4.65;;;;;;;;;;5038328;28;20056;-82
2023/02/22 04:27:07;;;;;;;10.60;5.50;;;;;;;;;;5056298;28;20056;-82
2023/02/22 04:29:34;;;;;;;7.78;5.20;;;;;;;;;;5055019;28;20049;-82
2023/02/22 04:32:02;;;;;;;8.23;4.50;;;;;;;;;;5037952;28;20493;-82
2023/02/22 04:34:29;;;;;;;11.48;5.07;;;;;;;;;;5056798;28;20045;-81
2023/02/22 04:36:56;;;;;;;8.70;4.75;;;;;;;;;;5037327;28;20041;-82
2023/02/22 04:39:23;;;;;;;11.27;5.03;;;;;;;;;;5058176;28;20140;-83
2023/02/22 04:41:51;;;;;;;5.55;5.03;;;;;;;;;;5036870;28;20056;-82
2023/02/22 04:44:18;;;;;;;6.75;4.18;;;;;;;;;;5036536;28;20052;-82
2023/02/22 04:46:45;;;;;;;5.75;5.10;;;;;;;;;;5036458;28;20048;-82
2023/02/22 04:49:13;;;;;;;10.60;6.80;;;;;;;;;;5036657;28;20103;-82
2023/02/22 04:51:41;;;;;;;8.68;5.30;;;;;;;;;;5037609;28;20053;-82
2023/02/22 04:54:08;;;;;;;16.88;5.10;;;;;;;;;;5054084;28;20080;-82
2023/02/22 04:56:35;;;;;;;7.60;5.07;;;;;;;;;;5054776;28;20049;-82
2023/02/22 04:59:03;;;;;;;7.40;5.03;;;;;;;;;;5040006;28;20053;-82
2023/02/22 05:01:32;;;;;;;6.03;4.60;;;;;;;;;;5040068;28;20048;-82
2023/02/22 05:04:01;;;;;;;6.68;5.03;;;;;;;;;;5038240;28;20084;-82
2023/02/22 05:06:28;;;;;;;7.18;4.97;;;;;;;;;;5054229;28;20525;-82
2023/02/22 05:08:55;;;;;;;7.13;4.75;;;;;;;;;;5036417;28;20059;-82
2023/02/22 05:11:23;;;;;;;9.45;5.28;;;;;;;;;;5036544;28;20084;-82
2023/02/22 05:13:50;;;;;;;6.22;5.00;;;;;;;;;;5035918;28;20063;-82
2023/02/22 05:16:17;;;;;;;5.13;4.72;;;;;;;;;;5054217;28;20485;-82
2023/02/22 05:18:45;;;;;;;8.15;5.63;;;;;;;;;;5037193;28;20118;-83
2023/02/22 05:21:12;;;;;;;8.07;4.82;;;;;;;;;;5054239;28;20051;-83
2023/02/22 05:23:40;;;;;;;8.23;4.60;;;;;;;;;;5064793;28;20057;-83
2023/02/22 05:26:09;;;;;;;11.00;4.53;;;;;;;;;;5058440;28;20093;-82
2023/02/22 05:28:37;;;;;;;9.88;4.70;;;;;;;;;;5063257;28;20551;-82
2023/02/22 05:31:06;;;;;;;10.63;4.72;;;;;;;;;;5054335;28;20481;-83
2023/02/22 05:33:33;;;;;;;9.05;4.40;;;;;;;;;;5040435;28;20049;-83
2023/02/22 05:36:00;;;;;;;10.45;5.00;;;;;;;;;;5058054;28;20080;-83
2023/02/22 05:38:28;;;;;;;6.28;4.25;;;;;;;;;;5060220;28;20102;-83
2023/02/22 05:40:55;;;;;;;6.25;3.85;;;;;;;;;;5042365;28;20051;-83
2023/02/22 05:43:23;;;;;;;7.72;4.47;;;;;;;;;;5041180;28;20057;-83
2023/02/22 05:45:50;;;;;;;4.07;3.60;;;;;;;;;;5040845;28;20059;-83
2023/02/22 05:48:17;;;;;;;11.10;4.60;;;;;;;;;;5058384;28;20063;-83
2023/02/22 05:50:48;;;;;;;7.63;4.68;;;;;;;;;;5041029;28;20052;-83
2023/02/22 05:53:16;;;;;;;10.77;5.85;;;;;;;;;;5041106;28;20080;-83
2023/02/22 05:55:43;;;;;;;13.70;6.50;;;;;;;;;;5062811;28;20049;-83
2023/02/22 05:58:12;;;;;;;9.07;5.20;;;;;;;;;;5061253;28;20053;-83
2023/02/22 06:00:39;;;;;;;10.05;5.45;;;;;;;;;;5059741;28;20128;-83
2023/02/22 06:03:09;;;;;;;6.47;5.07;;;;;;;;;;5040646;28;20049;-83
2023/02/22 06:05:36;;;;;;;8.23;5.32;;;;;;;;;;5044554;28;20077;-83
2023/02/22 06:08:06;;;;;;;23.58;16.05;;;;;;;;;;5043845;28;20520;-83
2023/02/22 06:10:34;;;;;;;19.95;12.45;;;;;;;;;;5040561;28;20049;-83
2023/02/22 06:13:02;;;;;;;12.93;9.25;;;;;;;;;;5040596;28;20481;-83
2023/02/22 06:15:29;;;;;;;8.48;6.03;;;;;;;;;;5039560;28;20063;-84
2023/02/22 06:17:57;;;;;;;9.45;5.88;;;;;;;;;;5040229;28;20067;-83
2023/02/22 06:20:25;;;;;;;11.32;6.05;;;;;;;;;;5057151;28;20432;-83
2023/02/22 06:22:54;;;;;;;8.95;6.43;;;;;;;;;;5057794;28;20059;-83
2023/02/22 06:25:23;;;;;;;11.02;6.50;;;;;;;;;;5039657;28;20131;-84
2023/02/22 06:27:50;;;;;;;15.23;6.88;;;;;;;;;;5057782;28;20412;-84
2023/02/22 06:30:20;;;;;;;14.73;7.88;;;;;;;;;;5057584;28;20404;-84
2023/02/22 06:32:47;;;;;;;13.88;8.40;;;;;;;;;;5040201;28;20053;-83
2023/02/22 06:35:15;;;;;;;19.27;8.48;;;;;;;;;;5040540;28;20131;-83
2023/02/22 06:37:42;;;;;;;15.57;8.85;;;;;;;;;;5058198;28;20072;-84
2023/02/22 06:40:10;;;;;;;19.52;8.13;;;;;;;;;;5040205;28;20489;-83
2023/02/22 06:42:38;;;;;;;14.70;8.60;;;;;;;;;;5039087;28;20077;-83
2023/02/22 06:45:05;;;;;;;19.75;8.77;;;;;;;;;;5057753;28;20049;-83
2023/02/22 06:47:32;;;;;;;17.35;8.85;;;;;;;;;;5039855;28;20049;-83
2023/02/22 06:49:59;;;;;;;15.60;8.75;;;;;;;;;;5057490;28;20049;-83
2023/02/22 06:52:27;;;;;;;18.80;8.73;;;;;;;;;;5057251;28;20045;-82
2023/02/22 06:54:54;;;;;;;20.05;13.27;;;;;;;;;;5039648;28;20052;-83
2023/02/22 06:57:21;;;;;;;32.22;19.63;;;;;;;;;;5039867;28;20092;-83
2023/02/22 06:59:48;;;;;;;25.73;17.05;;;;;;;;;;5057298;28;20045;-83
2023/02/22 07:02:16;;;;;;;21.00;14.07;;;;;;;;;;5056879;28;20513;-83
2023/02/22 07:04:44;;;;;;;21.83;14.43;;;;;;;;;;5057181;28;20057;-83
2023/02/22 07:07:12;;;;;;;28.38;19.65;;;;;;;;;;5056769;28;20052;-83
2023/02/22 07:09:39;;;;;;;21.45;12.55;;;;;;;;;;5056445;28;20053;-83
2023/02/22 07:12:06;;;;;;;26.15;14.68;;;;;;;;;;5056696;28;20085;-83
2023/02/22 07:14:33;;;;;;;28.67;14.98;;;;;;;;;;5050682;28;20057;-83
2023/02/22 07:17:02;;;;;;;25.00;15.68;;;;;;;;;;5078156;28;20076;-83
2023/02/22 07:19:29;;;;;;;62.10;47.00;;;;;;;;;;5053599;28;20127;-83
2023/02/22 07:21:57;;;;;;;30.63;21.90;;;;;;;;;;5064940;28;20108;-83
2023/02/22 07:24:27;;;;;;;21.95;10.18;;;;;;;;;;5046749;28;20055;-83
2023/02/22 07:26:54;;;;;;;19.67;10.00;;;;;;;;;;5046384;28;20056;-83
2023/02/22 07:29:22;;;;;;;21.48;9.82;;;;;;;;;;5045792;28;20164;-83
2023/02/22 07:31:50;;;;;;;14.63;9.88;;;;;;;;;;5046264;28;20057;-83
2023/02/22 07:34:17;;;;;;;21.50;10.63;;;;;;;;;;5046560;28;20052;-83
2023/02/22 07:36:45;;;;;;;23.60;10.63;;;;;;;;;;5064198;28;20075;-83
2023/02/22 07:39:12;;;;;;;23.08;10.45;;;;;;;;;;5046546;28;20075;-83
2023/02/22 07:41:39;;;;;;;33.97;12.60;;;;;;;;;;5046643;28;20052;-83
2023/02/22 07:44:06;;;;;;;25.85;11.60;;;;;;;;;;5045810;28;20059;-83
2023/02/22 07:46:34;;;;;;;27.58;11.85;;;;;;;;;;5046340;28;20052;-83
2023/02/22 07:49:02;;;;;;;29.23;11.88;;;;;;;;;;5065389;28;20052;-83
2023/02/22 07:51:30;;;;;;;35.40;11.57;;;;;;;;;;5047407;28;20120;-83
2023/02/22 07:53:57;;;;;;;25.60;11.35;;;;;;;;;;5048243;28;20068;-84
2023/02/22 07:56:24;;;;;;;17.40;10.25;;;;;;;;;;5047036;28;20460;-83
2023/02/22 07:58:52;;;;;;;17.13;10.13;;;;;;;;;;5064475;28;20052;-84
2023/02/22 08:01:19;;;;;;;24.05;10.43;;;;;;;;;;5045366;28;20045;-84
2023/02/22 08:03:47;;;;;;;31.30;10.15;;;;;;;;;;5047447;28;20040;-84
2023/02/22 08:06:15;;;;;;;21.48;9.30;;;;;;;;;;5064555;28;20052;-84
2023/02/22 08:08:42;;;;;;;17.98;10.65;;;;;;;;;;5065642;28;20053;-83
2023/02/22 08:11:09;;;;;;;20.13;9.65;;;;;;;;;;5049236;28;20064;-84
2023/02/22 08:13:38;;;;;;;25.23;8.65;;;;;;;;;;5064552;28;20060;-84
2023/02/22 08:16:05;;;;;;;19.63;6.88;;;;;;;;;;5062947;28;20131;-84
2023/02/22 08:18:32;;;;;;;13.48;6.72;;;;;;;;;;5065518;28;20053;-84
2023/02/22 08:21:00;;;;;;;18.33;6.05;;;;;;;;;;5046880;28;20596;-84
2023/02/22 08:23:28;;;;;;;13.82;5.07;;;;;;;;;;5045954;28;20055;-84
2023/02/22 08:25:55;;;;;;;9.02;5.70;;;;;;;;;;5063393;28;20132;-84
2023/02/22 08:28:24;;;;;;;15.77;5.32;;;;;;;;;;5064489;28;20049;-84
2023/02/22 08:30:51;;;;;;;7.97;4.75;;;;;;;;;;5062450;28;20068;-84
2023/02/22 08:33:19;;;;;;;4.68;3.72;;;;;;;;;;5044657;28;20059;-84
2023/02/22 08:35:50;;;;;;;6.07;3.67;;;;;;;;;;5061681;28;20382;-84
2023/02/22 08:38:22;;;;;;;5.43;4.88;;;;;;;;;;5062303;28;20080;-84
2023/02/22 08:40:50;;;;;;;53.28;37.00;;;;;;;;;;5044578;28;20047;-84
2023/02/22 08:43:18;;;;;;;20.13;17.65;;;;;;;;;;5061746;28;20117;-84
2023/02/22 08:45:46;;;;;;;5.57;3.63;;;;;;;;;;5044948;28;20052;-84
2023/02/22 08:48:14;;;;;;;3.60;3.30;;;;;;;;;;5045873;28;20560;-84
2023/02/22 08:50:41;;;;;;;9.23;6.82;;;;;;;;;;5045338;28;20076;-84
2023/02/22 08:53:09;;;;;;;14.10;10.35;;;;;;;;;;5063997;28;20051;-84
2023/02/22 08:55:37;;;;;;;6.43;4.30;;;;;;;;;;5044659;28;20068;-84
2023/02/22 08:58:08;;;;;;;10.45;4.80;;;;;;;;;;5062342;28;20053;-84
2023/02/22 09:00:37;;;;;;;9.88;4.10;;;;;;;;;;5063457;28;20049;-84
2023/02/22 09:03:10;;;;;;;20.52;4.88;;;;;;;;;;5045074;28;20052;-84
2023/02/22 09:05:37;;;;;;;10.93;4.70;;;;;;;;;;5051515;28;20077;-84
2023/02/22 09:08:05;;;;;;;5.05;3.50;;;;;;;;;;5074231;28;20291;-84
2023/02/22 09:10:33;;;;;;;4.90;3.10;;;;;;;;;;5051092;28;20053;-84
2023/02/22 09:13:01;;;;;;;9.50;4.07;;;;;;;;;;5062522;28;20051;-84
2023/02/22 09:15:28;;;;;;;6.10;3.50;;;;;;;;;;5044987;28;20061;-84
2023/02/22 09:17:56;;;;;;;7.75;4.25;;;;;;;;;;5063216;28;20103;-84
2023/02/22 09:20:24;;;;;;;10.68;4.70;;;;;;;;;;5043626;28;20060;-84
2023/02/22 09:22:52;;;;;;;8.18;4.57;;;;;;;;;;5041739;28;20060;-83
2023/02/22 09:25:19;;;;;;;11.13;4.18;;;;;;;;;;5041679;28;20127;-84
2023/02/22 09:27:48;;;;;;;8.52;4.22;;;;;;;;;;5042390;28;20053;-84
2023/02/22 09:30:16;;;;;;;10.60;4.50;;;;;;;;;;5043399;28;20051;-84
2023/02/22 09:32:44;;;;;;;52.72;5.90;;;;;;;;;;5061771;28;20125;-84
2023/02/22 09:35:11;;;;;;;7.07;3.60;;;;;;;;;;5042628;28;20079;-84
2023/02/22 09:37:39;;;;;;;5.90;3.70;;;;;;;;;;5039256;28;20049;-84
2023/02/22 09:40:08;;;;;;;16.08;3.85;;;;;;;;;;5021344;28;20410;-84
2023/02/22 09:42:44;;;;;;;19.63;6.20;;;;;;;;;;5038270;28;20129;-84
2023/02/22 09:45:35;;;;;;;32.67;7.65;;;;;;;;;;5020620;28;20037;-84
2023/02/22 09:48:06;;;;;;;31.95;8.43;;;;;;;;;;5022831;28;20046;-84
2023/02/22 09:50:49;;;;;;;15.05;6.25;;;;;;;;;;5011818;28;20064;-83
2023/02/22 09:53:28;;;;;;;13.65;3.80;;;;;;;;;;5016184;28;20077;-84
2023/02/22 09:56:02;;;;;;;3.72;1.58;;;;;;;;;;5025835;28;20060;-84
2023/02/22 09:58:32;;;;;;;;;;;;;;;;;;5032541;28;20054;-84
2023/02/22 10:01:13;;;;;;;3.67;1.30;;;;;;;;;;5016396;28;19922;-84
2023/02/22 10:03:51;;;;;;;4.40;1.65;;;;;;;;;;5022795;28;20053;-84
2023/02/22 10:06:21;;;;;;;2.13;1.23;;;;;;;;;;5005870;28;20050;-84
2023/02/22 10:08:55;;;;;;;4.00;2.30;;;;;;;;;;5023424;28;20050;-84
2023/02/22 10:11:36;;;;;;;2.08;1.65;;;;;;;;;;5005933;28;20110;-84
2023/02/22 10:14:18;;;;;;;1.20;1.10;;;;;;;;;;5012252;28;20084;-84
2023/02/22 10:16:58;;;;;;;1.58;1.48;;;;;;;;;;5042921;28;20045;-84
2023/02/22 10:19:34;;;;;;;3.40;1.50;;;;;;;;;;5048200;28;20102;-83
2023/02/22 10:22:05;;;;;;;2.63;1.50;;;;;;;;;;5048287;28;20046;-84
2023/02/22 10:24:48;;;;;;;;;;;;;;;;;;;;;
2023/02/22 10:27:41;;;;;;;4.05;1.20;;;;;;;;;;5047488;28;20056;-84
2023/02/22 10:30:23;;;;;;;1.38;1.20;;;;;;;;;;5025373;28;20049;-84
2023/02/22 10:33:14;;;;;;;1.42;0.95;;;;;;;;;;5030612;28;20053;-84
2023/02/22 10:35:41;;;;;;;19.65;1.92;;;;;;;;;;5047406;28;20046;-84
2023/02/22 10:38:23;;;;;;;;;;;;;;;;;;;;;
2023/02/22 10:40:53;;;;;;;3.85;1.13;;;;;;;;;;5045978;28;20061;-83
2023/02/22 10:43:22;;;;;;;2.42;1.10;;;;;;;;;;5027243;28;20057;-83
2023/02/22 10:45:52;;;;;;;2.22;1.30;;;;;;;;;;5026535;28;20045;-83
2023/02/22 10:48:21;;;;;;;1.10;1.00;;;;;;;;;;5028325;28;20060;-83
2023/02/22 10:50:49;;;;;;;6.80;6.10;;;;;;;;;;5046320;28;20048;-83
2023/02/22 10:53:16;;;;;;;2.72;2.20;;;;;;;;;;5046090;28;20056;-84
2023/02/22 10:56:05;;;;;;;1.90;1.40;;;;;;;;;;5029468;28;20057;-84
2023/02/22 10:58:40;;;;;;;1.90;1.13;;;;;;;;;;5058654;28;20045;-81
2023/02/22 11:01:27;;;;;;;2.25;1.27;;;;;;;;;;5040662;28;20112;-84
2023/02/22 11:03:58;;;;;;;1.83;1.65;;;;;;;;;;5022154;28;20478;-84
2023/02/22 11:06:26;;;;;;;1.67;1.58;;;;;;;;;;5045990;28;20101;-82
2023/02/22 11:09:03;;;;;;;2.60;1.35;;;;;;;;;;5045501;28;20124;-84
2023/02/22 11:11:32;;;;;;;6.15;1.95;;;;;;;;;;5028399;28;20395;-83
2023/02/22 11:14:01;;;;;;;1.52;1.42;;;;;;;;;;5027948;28;20076;-84
2023/02/22 11:16:48;;;;;;;3.80;1.67;;;;;;;;;;5028878;28;20057;-84
2023/02/22 11:19:15;;;;;;;3.85;1.50;;;;;;;;;;5028926;28;20112;-84
2023/02/22 11:21:43;;;;;;;5.40;1.65;;;;;;;;;;5046180;28;20116;-84
2023/02/22 11:24:12;;;;;;;3.30;1.38;;;;;;;;;;5028370;28;20056;-84
2023/02/22 11:26:44;;;;;;;1.55;1.30;;;;;;;;;;5035929;28;20048;-84
2023/02/22 11:29:16;;;;;;;1.65;1.40;;;;;;;;;;5043849;28;20079;-84
2023/02/22 11:31:44;;;;;;;1.77;1.67;;;;;;;;;;5067486;28;20075;-84
2023/02/22 11:34:44;;;;;;;2.63;1.60;;;;;;;;;;5049122;28;20100;-84
2023/02/22 11:37:24;;;;;;;3.50;1.65;;;;;;;;;;5032652;28;20045;-84
2023/02/22 11:40:31;;;;;;;1.25;1.15;;;;;;;;;;5064635;28;20056;-84
2023/02/22 11:43:10;;;;;;;1.75;1.48;;;;;;;;;;5004064;28;20050;-84
2023/02/22 11:45:38;;;;;;;5.03;1.17;;;;;;;;;;4987528;28;20054;-84
2023/02/22 11:48:19;;;;;;;2.20;1.30;;;;;;;;;;5028811;28;20049;-84
2023/02/22 11:51:22;;;;;;;3.20;1.38;;;;;;;;;;5065842;28;20456;-83
2023/02/22 11:53:59;;;;;;;1.73;1.60;;;;;;;;;;4983449;28;20050;-84
2023/02/22 11:56:30;;;;;;;1.65;1.50;;;;;;;;;;5057494;28;20055;-83
2023/02/22 11:59:23;;;;;;;3.78;1.55;;;;;;;;;;5065127;28;20509;-83
2023/02/22 12:01:55;;;;;;;6.20;1.95;;;;;;;;;;5065292;28;20079;-84
2023/02/22 12:04:23;;;;;;;3.97;1.60;;;;;;;;;;5048667;28;20108;-84
2023/02/22 12:07:16;;;;;;;5.45;1.80;;;;;;;;;;5048977;28;20045;-84
2023/02/22 12:09:50;;;;;;;3.78;2.00;;;;;;;;;;5049388;28;20049;-84
2023/02/22 12:12:27;;;;;;;13.32;2.30;;;;;;;;;;5047824;28;20049;-84
2023/02/22 12:15:00;;;;;;;3.17;1.80;;;;;;;;;;5047787;28;20143;-84
2023/02/22 12:17:33;;;;;;;2.33;2.05;;;;;;;;;;5065272;28;20045;-83
2023/02/22 12:20:21;;;;;;;8.15;2.30;;;;;;;;;;5066988;28;20132;-84
2023/02/22 12:22:54;;;;;;;4.95;2.33;;;;;;;;;;5065747;28;20083;-83
2023/02/22 12:25:23;;;;;;;9.50;2.28;;;;;;;;;;5047798;28;20446;-84
2023/02/22 12:27:53;;;;;;;2.53;1.90;;;;;;;;;;5047158;28;20045;-84
2023/02/22 12:30:23;;;;;;;2.20;2.00;;;;;;;;;;5063212;28;20088;-85
2023/02/22 12:32:52;;;;;;;3.90;2.30;;;;;;;;;;5046846;28;20312;-82
2023/02/22 12:35:24;;;;;;;2.72;1.98;;;;;;;;;;5046048;28;20428;-83
2023/02/22 12:37:58;;;;;;;8.40;1.88;;;;;;;;;;5046493;28;20454;-83
2023/02/22 12:40:30;;;;;;;4.70;2.10;;;;;;;;;;5047464;28;20055;-83
2023/02/22 12:43:08;;;;;;;26.35;3.10;;;;;;;;;;5035612;28;20064;-83
2023/02/22 12:45:38;;;;;;;5.15;2.38;;;;;;;;;;5047446;28;20053;-82
2023/02/22 12:48:09;;;;;;;6.28;2.10;;;;;;;;;;5050134;28;20053;-83
2023/02/22 12:50:36;;;;;;;3.97;2.08;;;;;;;;;;5040493;28;20053;-83
2023/02/22 12:53:12;;;;;;;4.15;2.00;;;;;;;;;;5036135;28;20045;-84
2023/02/22 12:55:44;;;;;;;3.50;2.20;;;;;;;;;;5044210;28;20049;-84
2023/02/22 12:58:25;;;;;;;7.07;2.78;;;;;;;;;;5036815;28;20072;-84
2023/02/22 13:00:53;;;;;;;4.38;2.90;;;;;;;;;;5018481;28;20053;-84
2023/02/22 13:03:30;;;;;;;5.35;2.40;;;;;;;;;;5017698;28;20049;-84
2023/02/22 13:06:04;;;;;;;6.22;2.28;;;;;;;;;;5017155;28;20053;-84
2023/02/22 13:08:51;;;;;;;6.82;3.03;;;;;;;;;;5034820;28;20088;-83
2023/02/22 13:11:27;;;;;;;4.03;2.38;;;;;;;;;;5017236;28;20057;-84
2023/02/22 13:14:14;;;;;;;4.25;2.53;;;;;;;;;;5016947;28;20068;-84
2023/02/22 13:17:12;;;;;;;10.80;2.95;;;;;;;;;;5017036;28;20045;-84
2023/02/22 13:19:42;;;;;;;3.15;1.83;;;;;;;;;;5005251;28;20425;-83
2023/02/22 13:22:16;;;;;;;3.55;2.10;;;;;;;;;;5017250;28;20409;-84
2023/02/22 13:24:46;;;;;;;9.20;3.13;;;;;;;;;;5034716;28;20508;-83
2023/02/22 13:27:17;;;;;;;4.53;1.90;;;;;;;;;;5034662;28;20085;-84
2023/02/22 13:29:47;;;;;;;4.78;2.17;;;;;;;;;;5016939;28;20053;-83
2023/02/22 13:32:20;;;;;;;2.60;1.83;;;;;;;;;;5016850;28;20054;-84
2023/02/22 13:34:58;;;;;;;2.40;2.22;;;;;;;;;;5034376;28;20156;-84
2023/02/22 13:37:41;;;;;;;3.40;2.47;;;;;;;;;;5034765;28;20073;-84
2023/02/22 13:40:26;;;;;;;4.60;2.25;;;;;;;;;;5016529;28;20050;-84
2023/02/22 13:43:00;;;;;;;9.55;2.50;;;;;;;;;;5016816;28;20080;-83
2023/02/22 13:45:27;;;;;;;;;;;;;;;;;;5034812;28;20056;-83
2023/02/22 13:47:54;;;;;;;6.20;2.10;;;;;;;;;;5032544;28;19925;-83
2023/02/22 13:50:27;;;;;;;3.33;2.30;;;;;;;;;;5016573;28;20045;-84
2023/02/22 13:52:55;;;;;;;2.65;2.17;;;;;;;;;;5022712;28;20053;-84
2023/02/22 13:55:26;;;;;;;8.88;2.42;;;;;;;;;;5022567;28;20075;-84
2023/02/22 13:58:00;;;;;;;3.72;2.10;;;;;;;;;;5043474;28;20049;-84
2023/02/22 14:01:03;;;;;;;12.75;2.78;;;;;;;;;;5030558;28;20042;-84
2023/02/22 14:03:35;;;;;;;2.90;1.88;;;;;;;;;;4957590;28;20535;-84
2023/02/22 14:06:21;;;;;;;5.70;1.70;;;;;;;;;;5030490;28;20048;-84
2023/02/22 14:08:48;;;;;;;2.13;1.38;;;;;;;;;;5039672;28;20045;-84
2023/02/22 14:11:18;;;;;;;2.05;1.60;;;;;;;;;;5057258;28;20049;-84
2023/02/22 14:13:59;;;;;;;2.63;1.35;;;;;;;;;;5039646;28;20067;-84
2023/02/22 14:16:27;;;;;;;1.77;1.40;;;;;;;;;;5040392;28;20049;-85
2023/02/22 14:19:05;;;;;;;6.15;1.70;;;;;;;;;;5042053;28;20564;-84
2023/02/22 14:21:34;;;;;;;2.53;1.60;;;;;;;;;;5038935;28;20104;-83
2023/02/22 14:24:15;;;;;;;5.47;1.77;;;;;;;;;;5039407;28;20131;-84
2023/02/22 14:26:54;;;;;;;4.35;1.55;;;;;;;;;;5057560;28;20068;-84
2023/02/22 14:29:21;;;;;;;2.92;1.40;;;;;;;;;;5039524;28;20405;-84
2023/02/22 14:31:51;;;;;;;1.25;1.15;;;;;;;;;;5057104;28;20052;-83
2023/02/22 14:34:37;;;;;;;6.88;1.67;;;;;;;;;;5039628;28;20166;-83
2023/02/22 14:37:13;;;;;;;6.05;1.60;;;;;;;;;;5040060;28;20059;-85
2023/02/22 14:39:48;;;;;;;4.15;2.17;;;;;;;;;;5051030;28;20060;-83
2023/02/22 14:42:28;;;;;;;2.70;1.52;;;;;;;;;;5056741;28;20071;-84
2023/02/22 14:45:04;;;;;;;5.40;1.95;;;;;;;;;;5040991;28;20063;-83
2023/02/22 14:47:39;;;;;;;1.27;1.20;;;;;;;;;;5057202;28;20140;-84
2023/02/22 14:50:12;;;;;;;2.95;1.60;;;;;;;;;;5037745;28;20051;-84
2023/02/22 14:52:39;;;;;;;3.03;1.45;;;;;;;;;;5038682;28;20106;-84
2023/02/22 14:55:23;;;;;;;5.88;1.60;;;;;;;;;;5038509;28;20053;-84
2023/02/22 14:58:10;;;;;;;2.63;1.60;;;;;;;;;;5056338;28;20045;-83
2023/02/22 15:00:40;;;;;;;5.25;1.50;;;;;;;;;;5056366;28;20048;-84
2023/02/22 15:03:17;;;;;;;4.97;1.50;;;;;;;;;;5055829;28;20053;-84
2023/02/22 15:05:44;;;;;;;6.35;1.58;;;;;;;;;;5038131;28;20053;-84